createdAt,value
2019-02-28T00:00:56.346Z,5.20
2019-02-28T00:01:56.405Z,5.11
2019-02-28T00:02:56.472Z,5.11
2019-02-28T00:03:58.020Z,5.14
2019-02-28T00:04:56.585Z,5.14
2019-02-28T00:05:56.645Z,5.08
2019-02-28T00:06:56.709Z,5.05
2019-02-28T00:07:56.777Z,5.15
2019-02-28T00:08:56.847Z,5.02
2019-02-28T00:09:57.496Z,5.11
2019-02-28T00:10:56.949Z,4.97
2019-02-28T00:11:57.009Z,4.97
2019-02-28T00:12:57.100Z,5.04
2019-02-28T00:13:57.129Z,5.00
2019-02-28T00:14:58.582Z,5.00
2019-02-28T00:15:57.249Z,5.05
2019-02-28T00:16:57.314Z,4.99
2019-02-28T00:17:57.377Z,4.96
2019-02-28T00:18:57.441Z,4.94
2019-02-28T00:19:57.968Z,4.96
2019-02-28T00:20:57.554Z,4.84
2019-02-28T00:21:57.614Z,4.89
2019-02-28T00:22:57.682Z,4.90
2019-02-28T00:23:57.742Z,4.89
2019-02-28T00:24:57.794Z,4.87
2019-02-28T00:25:57.858Z,4.89
2019-02-28T00:26:57.914Z,4.89
2019-02-28T00:27:57.982Z,4.87
2019-02-28T00:29:00.471Z,4.84
2019-02-28T00:29:58.094Z,4.87
2019-02-28T00:30:58.158Z,4.80
2019-02-28T00:31:58.227Z,4.86
2019-02-28T00:32:59.369Z,4.89
2019-02-28T00:33:58.338Z,4.89
2019-02-28T00:34:58.399Z,4.86
2019-02-28T00:35:58.458Z,4.84
2019-02-28T00:36:58.518Z,4.77
2019-02-28T00:37:58.586Z,4.78
2019-02-28T00:38:59.985Z,4.78
2019-02-28T00:39:58.698Z,4.75
2019-02-28T00:40:58.762Z,4.78
2019-02-28T00:41:58.819Z,4.68
2019-02-28T00:42:58.887Z,4.74
2019-02-28T00:43:58.951Z,4.67
2019-02-28T00:45:02.274Z,4.67
2019-02-28T00:45:59.059Z,4.70
2019-02-28T00:46:59.118Z,4.60
2019-02-28T00:47:59.527Z,4.71
2019-02-28T00:48:59.243Z,4.67
2019-02-28T00:49:59.299Z,4.62
2019-02-28T00:50:59.375Z,4.59
2019-02-28T00:52:01.599Z,4.62
2019-02-28T00:52:59.484Z,4.55
2019-02-28T00:53:59.584Z,4.56
2019-02-28T00:54:59.607Z,4.59
2019-02-28T00:55:59.663Z,4.53
2019-02-28T00:56:59.726Z,4.58
2019-02-28T00:57:59.784Z,4.60
2019-02-28T00:59:00.504Z,4.60
2019-02-28T01:00:04.954Z,4.52
2019-02-28T01:00:59.964Z,4.52
2019-02-28T01:02:00.023Z,4.42
2019-02-28T01:03:00.084Z,4.50
2019-02-28T01:04:00.160Z,4.55
2019-02-28T01:05:01.300Z,4.55
2019-02-28T01:06:00.265Z,4.49
2019-02-28T01:07:00.327Z,4.49
2019-02-28T01:08:00.384Z,4.52
2019-02-28T01:09:00.460Z,4.48
2019-02-28T01:10:01.502Z,4.48
2019-02-28T01:11:00.567Z,4.44
2019-02-28T01:12:00.624Z,4.45
2019-02-28T01:13:00.687Z,4.41
2019-02-28T01:14:01.555Z,4.44
2019-02-28T01:15:00.812Z,4.49
2019-02-28T01:16:00.864Z,4.44
2019-02-28T01:17:00.924Z,4.40
2019-02-28T01:18:01.551Z,4.28
2019-02-28T01:19:01.052Z,4.32
2019-02-28T01:20:01.113Z,4.42
2019-02-28T01:21:01.165Z,4.32
2019-02-28T01:22:01.225Z,4.35
2019-02-28T01:23:01.301Z,4.30
2019-02-28T01:24:01.785Z,4.30
2019-02-28T01:25:01.405Z,4.30
2019-02-28T01:26:01.469Z,4.30
2019-02-28T01:27:01.525Z,4.31
2019-02-28T01:28:01.585Z,4.23
2019-02-28T01:29:02.671Z,4.34
2019-02-28T01:30:01.709Z,4.31
2019-02-28T01:31:01.762Z,4.32
2019-02-28T01:32:01.821Z,4.31
2019-02-28T01:33:01.881Z,4.30
2019-02-28T01:34:01.957Z,4.31
2019-02-28T01:35:05.603Z,4.32
2019-02-28T01:36:02.062Z,4.34
2019-02-28T01:37:02.121Z,4.32
2019-02-28T01:38:02.181Z,4.32
2019-02-28T01:39:02.257Z,4.24
2019-02-28T01:40:04.343Z,4.26
2019-02-28T01:41:02.367Z,4.24
2019-02-28T01:42:02.426Z,4.24
2019-02-28T01:43:02.481Z,4.23
2019-02-28T01:44:02.849Z,4.19
2019-02-28T01:45:02.610Z,4.12
2019-02-28T01:46:02.672Z,4.23
2019-02-28T01:47:02.722Z,4.20
2019-02-28T01:48:02.782Z,4.20
2019-02-28T01:49:02.850Z,4.19
2019-02-28T01:50:02.906Z,4.17
2019-02-28T01:51:02.962Z,4.22
2019-02-28T01:52:03.022Z,4.22
2019-02-28T01:53:03.082Z,4.13
2019-02-28T01:54:03.231Z,4.08
2019-02-28T01:55:03.198Z,4.13
2019-02-28T01:56:03.306Z,4.06
2019-02-28T01:57:03.322Z,4.16
2019-02-28T01:58:03.378Z,4.08
2019-02-28T01:59:03.446Z,4.14
2019-02-28T02:00:03.507Z,4.05
2019-02-28T02:01:03.559Z,4.13
2019-02-28T02:02:06.732Z,4.14
2019-02-28T02:03:03.679Z,4.13
2019-02-28T02:04:03.748Z,4.08
2019-02-28T02:05:03.807Z,4.08
2019-02-28T02:06:03.855Z,4.04
2019-02-28T02:07:03.915Z,4.02
2019-02-28T02:08:06.531Z,3.98
2019-02-28T02:09:04.043Z,3.98
2019-02-28T02:10:04.105Z,3.99
2019-02-28T02:11:04.155Z,3.91
2019-02-28T02:12:04.215Z,3.95
2019-02-28T02:13:04.365Z,3.98
2019-02-28T02:14:04.365Z,3.99
2019-02-28T02:15:04.395Z,3.96
2019-02-28T02:16:04.455Z,3.92
2019-02-28T02:17:04.515Z,4.01
2019-02-28T02:18:06.400Z,3.95
2019-02-28T02:19:04.639Z,4.02
2019-02-28T02:20:04.700Z,3.94
2019-02-28T02:21:04.751Z,3.96
2019-02-28T02:22:09.140Z,3.95
2019-02-28T02:23:04.872Z,3.94
2019-02-28T02:24:04.942Z,3.98
2019-02-28T02:25:05.004Z,3.95
2019-02-28T02:26:05.052Z,3.92
2019-02-28T02:27:05.112Z,3.99
2019-02-28T02:28:05.168Z,3.96
2019-02-28T02:29:05.228Z,3.99
2019-02-28T02:30:13.385Z,3.92
2019-02-28T02:31:05.349Z,3.95
2019-02-28T02:32:05.409Z,3.95
2019-02-28T02:33:05.473Z,3.84
2019-02-28T02:34:05.529Z,3.83
2019-02-28T02:35:08.136Z,3.84
2019-02-28T02:36:05.665Z,3.87
2019-02-28T02:37:05.713Z,3.81
2019-02-28T02:38:05.765Z,3.83
2019-02-28T02:39:05.825Z,3.86
2019-02-28T02:40:05.887Z,3.78
2019-02-28T02:41:05.954Z,3.87
2019-02-28T02:42:09.803Z,3.78
2019-02-28T02:43:06.068Z,3.83
2019-02-28T02:44:06.125Z,3.80
2019-02-28T02:45:06.672Z,3.87
2019-02-28T02:46:06.241Z,3.83
2019-02-28T02:47:06.413Z,3.84
2019-02-28T02:48:06.834Z,3.84
2019-02-28T02:49:06.428Z,3.84
2019-02-28T02:50:06.481Z,3.80
2019-02-28T02:51:10.610Z,3.76
2019-02-28T02:52:06.608Z,3.80
2019-02-28T02:53:06.729Z,3.77
2019-02-28T02:54:06.721Z,3.70
2019-02-28T02:55:06.778Z,3.68
2019-02-28T02:56:06.848Z,3.70
2019-02-28T02:57:06.907Z,3.63
2019-02-28T02:58:06.965Z,3.76
2019-02-28T02:59:07.017Z,3.63
2019-02-28T03:00:13.303Z,3.65
2019-02-28T03:01:07.138Z,3.62
2019-02-28T03:02:07.614Z,3.53
2019-02-28T03:03:07.836Z,3.66
2019-02-28T03:04:07.314Z,3.68
2019-02-28T03:05:07.374Z,3.63
2019-02-28T03:06:12.142Z,3.59
2019-02-28T03:07:07.490Z,3.55
2019-02-28T03:08:07.644Z,3.51
2019-02-28T03:09:10.189Z,3.55
2019-02-28T03:10:07.671Z,3.51
2019-02-28T03:11:07.730Z,3.55
2019-02-28T03:12:07.790Z,3.62
2019-02-28T03:13:07.854Z,3.50
2019-02-28T03:14:07.915Z,3.58
2019-02-28T03:15:07.967Z,3.66
2019-02-28T03:16:08.027Z,3.58
2019-02-28T03:17:11.843Z,3.62
2019-02-28T03:18:08.196Z,3.48
2019-02-28T03:19:08.217Z,3.55
2019-02-28T03:20:08.892Z,3.58
2019-02-28T03:21:08.328Z,3.45
2019-02-28T03:22:08.385Z,3.48
2019-02-28T03:23:08.454Z,3.50
2019-02-28T03:24:14.615Z,3.47
2019-02-28T03:25:08.563Z,3.47
2019-02-28T03:26:08.619Z,3.41
2019-02-28T03:27:08.684Z,3.48
2019-02-28T03:28:08.751Z,3.34
2019-02-28T03:29:09.025Z,3.42
2019-02-28T03:30:08.875Z,3.36
2019-02-28T03:31:14.448Z,3.41
2019-02-28T03:32:08.976Z,3.40
2019-02-28T03:33:09.045Z,3.41
2019-02-28T03:34:12.753Z,3.29
2019-02-28T03:35:09.156Z,3.32
2019-02-28T03:36:09.220Z,3.25
2019-02-28T03:37:09.273Z,3.32
2019-02-28T03:38:11.579Z,3.26
2019-02-28T03:39:09.391Z,3.31
2019-02-28T03:40:09.454Z,3.28
2019-02-28T03:41:16.281Z,3.31
2019-02-28T03:42:09.569Z,3.31
2019-02-28T03:43:09.640Z,3.29
2019-02-28T03:44:09.700Z,3.28
2019-02-28T03:45:09.747Z,3.23
2019-02-28T03:46:10.393Z,3.21
2019-02-28T03:47:09.864Z,3.28
2019-02-28T03:48:09.931Z,3.25
2019-02-28T03:49:11.503Z,3.23
2019-02-28T03:50:10.055Z,3.22
2019-02-28T03:51:10.105Z,3.23
2019-02-28T03:52:10.159Z,3.14
2019-02-28T03:53:10.241Z,3.21
2019-02-28T03:54:10.284Z,3.19
2019-02-28T03:55:10.344Z,3.08
2019-02-28T03:56:14.335Z,3.13
2019-02-28T03:57:10.456Z,3.16
2019-02-28T03:58:10.525Z,3.16
2019-02-28T03:59:18.289Z,3.18
2019-02-28T04:00:10.637Z,3.07
2019-02-28T04:01:10.701Z,3.11
2019-02-28T04:02:10.752Z,3.10
2019-02-28T04:03:10.820Z,3.13
2019-02-28T04:04:12.213Z,3.04
2019-02-28T04:05:10.944Z,3.11
2019-02-28T04:06:10.998Z,3.04
2019-02-28T04:07:15.400Z,3.03
2019-02-28T04:08:11.216Z,3.05
2019-02-28T04:09:11.169Z,3.03
2019-02-28T04:10:11.224Z,3.03
2019-02-28T04:11:11.285Z,3.01
2019-02-28T04:12:11.346Z,2.97
2019-02-28T04:13:11.413Z,3.01
2019-02-28T04:14:11.476Z,2.97
2019-02-28T04:15:11.528Z,2.92
2019-02-28T04:16:11.584Z,2.97
2019-02-28T04:17:11.643Z,2.97
2019-02-28T04:18:11.707Z,2.90
2019-02-28T04:19:11.765Z,3.00
2019-02-28T04:20:11.821Z,2.93
2019-02-28T04:21:12.226Z,2.92
2019-02-28T04:22:11.934Z,2.97
2019-02-28T04:23:12.002Z,2.98
2019-02-28T04:24:13.850Z,2.95
2019-02-28T04:25:12.117Z,2.98
2019-02-28T04:26:12.169Z,3.04
2019-02-28T04:27:12.229Z,3.03
2019-02-28T04:28:17.183Z,2.97
2019-02-28T04:29:12.353Z,2.95
2019-02-28T04:30:12.406Z,2.95
2019-02-28T04:31:18.717Z,2.97
2019-02-28T04:32:12.529Z,2.95
2019-02-28T04:33:12.612Z,3.00
2019-02-28T04:34:13.358Z,2.95
2019-02-28T04:35:12.710Z,2.90
2019-02-28T04:36:12.762Z,2.87
2019-02-28T04:37:12.822Z,2.85
2019-02-28T04:38:12.886Z,2.90
2019-02-28T04:39:12.946Z,2.79
2019-02-28T04:40:12.998Z,2.83
2019-02-28T04:41:13.058Z,2.86
2019-02-28T04:42:13.114Z,2.85
2019-02-28T04:43:13.202Z,2.79
2019-02-28T04:44:15.418Z,2.79
2019-02-28T04:45:13.294Z,2.79
2019-02-28T04:46:13.350Z,2.79
2019-02-28T04:47:13.410Z,2.82
2019-02-28T04:48:14.034Z,2.68
2019-02-28T04:49:13.534Z,2.82
2019-02-28T04:50:13.587Z,2.69
2019-02-28T04:51:13.648Z,2.69
2019-02-28T04:52:13.707Z,2.74
2019-02-28T04:53:13.771Z,2.77
2019-02-28T04:54:13.831Z,2.72
2019-02-28T04:55:13.883Z,2.74
2019-02-28T04:56:13.939Z,2.72
2019-02-28T04:57:14.007Z,2.69
2019-02-28T04:58:14.067Z,2.75
2019-02-28T04:59:14.126Z,2.72
2019-02-28T05:00:14.175Z,2.72
2019-02-28T05:01:14.236Z,2.64
2019-02-28T05:02:14.297Z,2.67
2019-02-28T05:03:14.361Z,2.65
2019-02-28T05:04:14.419Z,2.67
2019-02-28T05:05:14.472Z,2.65
2019-02-28T05:06:14.527Z,2.64
2019-02-28T05:07:14.587Z,2.60
2019-02-28T05:08:14.658Z,2.64
2019-02-28T05:09:15.246Z,2.60
2019-02-28T05:10:14.766Z,2.69
2019-02-28T05:11:14.831Z,2.67
2019-02-28T05:12:14.884Z,2.67
2019-02-28T05:13:15.025Z,2.67
2019-02-28T05:14:15.008Z,2.69
2019-02-28T05:15:15.060Z,2.67
2019-02-28T05:16:15.116Z,2.67
2019-02-28T05:17:15.175Z,2.61
2019-02-28T05:18:15.239Z,2.54
2019-02-28T05:19:15.316Z,2.56
2019-02-28T05:20:15.352Z,2.67
2019-02-28T05:21:16.500Z,2.50
2019-02-28T05:22:15.468Z,2.57
2019-02-28T05:23:15.528Z,2.57
2019-02-28T05:24:15.596Z,2.51
2019-02-28T05:25:18.632Z,2.56
2019-02-28T05:26:15.704Z,2.54
2019-02-28T05:27:15.769Z,2.49
2019-02-28T05:28:15.820Z,2.54
2019-02-28T05:29:15.894Z,2.50
2019-02-28T05:30:19.374Z,2.53
2019-02-28T05:31:16.004Z,2.50
2019-02-28T05:32:16.057Z,2.57
2019-02-28T05:33:16.131Z,2.53
2019-02-28T05:34:16.840Z,2.51
2019-02-28T05:35:16.234Z,2.50
2019-02-28T05:36:16.293Z,2.51
2019-02-28T05:37:16.357Z,2.49
2019-02-28T05:38:20.728Z,2.47
2019-02-28T05:39:16.477Z,2.50
2019-02-28T05:40:16.533Z,2.47
2019-02-28T05:41:16.679Z,2.49
2019-02-28T05:42:16.645Z,2.51
2019-02-28T05:43:16.709Z,2.51
2019-02-28T05:44:16.769Z,2.53
2019-02-28T05:45:16.829Z,2.49
2019-02-28T05:46:16.883Z,2.47
2019-02-28T05:47:16.937Z,2.47
2019-02-28T05:48:16.998Z,2.44
2019-02-28T05:49:17.055Z,2.49
2019-02-28T05:50:17.550Z,2.43
2019-02-28T05:51:17.174Z,2.43
2019-02-28T05:52:17.230Z,2.44
2019-02-28T05:53:17.290Z,2.47
2019-02-28T05:54:17.345Z,2.31
2019-02-28T05:55:17.407Z,2.39
2019-02-28T05:56:17.483Z,2.35
2019-02-28T05:57:17.527Z,2.42
2019-02-28T05:58:18.334Z,2.36
2019-02-28T05:59:17.642Z,2.51
2019-02-28T06:00:18.829Z,2.49
2019-02-28T06:01:17.766Z,2.47
2019-02-28T06:02:18.896Z,2.49
2019-02-28T06:03:17.874Z,2.56
2019-02-28T06:04:17.934Z,2.47
2019-02-28T06:05:17.994Z,2.50
2019-02-28T06:06:20.167Z,2.50
2019-02-28T06:07:18.122Z,2.53
2019-02-28T06:08:18.167Z,2.51
2019-02-28T06:09:18.231Z,2.57
2019-02-28T06:10:23.460Z,2.69
2019-02-28T06:11:18.351Z,2.64
2019-02-28T06:12:18.416Z,2.62
2019-02-28T06:13:18.966Z,2.68
2019-02-28T06:14:18.522Z,2.69
2019-02-28T06:15:18.582Z,2.65
2019-02-28T06:16:18.643Z,2.69
2019-02-28T06:17:20.960Z,2.65
2019-02-28T06:18:18.777Z,2.67
2019-02-28T06:19:20.297Z,2.74
2019-02-28T06:20:18.871Z,2.74
2019-02-28T06:21:18.963Z,2.68
2019-02-28T06:22:18.995Z,2.74
2019-02-28T06:23:19.047Z,2.64
2019-02-28T06:24:19.115Z,2.83
2019-02-28T06:25:23.610Z,2.77
2019-02-28T06:26:19.242Z,2.69
2019-02-28T06:27:19.280Z,2.85
2019-02-28T06:28:19.340Z,2.85
2019-02-28T06:29:19.400Z,2.77
2019-02-28T06:30:19.457Z,2.86
2019-02-28T06:31:19.525Z,2.77
2019-02-28T06:32:23.206Z,2.85
2019-02-28T06:33:21.223Z,2.79
2019-02-28T06:34:19.692Z,2.87
2019-02-28T06:35:20.496Z,2.85
2019-02-28T06:36:19.818Z,2.86
2019-02-28T06:37:19.877Z,2.80
2019-02-28T06:38:19.956Z,2.86
2019-02-28T06:39:19.984Z,2.92
2019-02-28T06:40:20.044Z,2.93
2019-02-28T06:41:20.451Z,2.90
2019-02-28T06:42:20.162Z,3.00
2019-02-28T06:43:20.220Z,3.03
2019-02-28T06:44:20.284Z,2.93
2019-02-28T06:45:20.336Z,3.00
2019-02-28T06:46:20.396Z,3.10
2019-02-28T06:47:20.473Z,3.01
2019-02-28T06:48:25.923Z,3.08
2019-02-28T06:49:20.581Z,3.07
2019-02-28T06:50:20.634Z,3.03
2019-02-28T06:51:20.685Z,3.13
2019-02-28T06:52:22.244Z,3.14
2019-02-28T06:53:20.817Z,3.16
2019-02-28T06:54:20.869Z,3.23
2019-02-28T06:55:20.930Z,3.21
2019-02-28T06:56:22.658Z,3.26
2019-02-28T06:57:21.055Z,3.31
2019-02-28T06:58:21.109Z,3.36
2019-02-28T06:59:21.161Z,3.34
2019-02-28T07:00:21.231Z,3.34
2019-02-28T07:01:22.657Z,3.42
2019-02-28T07:02:21.345Z,3.50
2019-02-28T07:03:21.416Z,3.51
2019-02-28T07:04:21.457Z,3.56
2019-02-28T07:05:25.040Z,3.63
2019-02-28T07:06:21.574Z,3.55
2019-02-28T07:07:21.642Z,3.69
2019-02-28T07:08:24.748Z,3.74
2019-02-28T07:09:21.754Z,3.69
2019-02-28T07:10:21.814Z,3.84
2019-02-28T07:11:21.874Z,3.81
2019-02-28T07:12:21.942Z,3.91
2019-02-28T07:13:21.998Z,3.91
2019-02-28T07:14:22.050Z,4.01
2019-02-28T07:15:24.755Z,4.06
2019-02-28T07:16:22.172Z,4.12
2019-02-28T07:17:22.286Z,4.23
2019-02-28T07:18:22.286Z,4.23
2019-02-28T07:19:22.351Z,4.28
2019-02-28T07:20:22.410Z,4.32
2019-02-28T07:21:22.470Z,4.41
2019-02-28T07:22:22.531Z,4.48
2019-02-28T07:23:22.595Z,4.50
2019-02-28T07:24:22.642Z,4.48
2019-02-28T07:25:22.702Z,4.56
2019-02-28T07:26:22.766Z,4.58
2019-02-28T07:27:23.346Z,4.58
2019-02-28T07:28:22.891Z,4.67
2019-02-28T07:29:22.947Z,4.71
2019-02-28T07:30:23.003Z,4.80
2019-02-28T07:31:24.658Z,5.00
2019-02-28T07:32:23.131Z,4.96
2019-02-28T07:33:23.290Z,5.10
2019-02-28T07:34:23.966Z,5.17
2019-02-28T07:35:23.311Z,5.20
2019-02-28T07:36:23.359Z,5.29
2019-02-28T07:37:23.419Z,5.36
2019-02-28T07:38:25.658Z,5.44
2019-02-28T07:39:23.547Z,5.46
2019-02-28T07:40:23.605Z,5.56
2019-02-28T07:41:26.797Z,5.64
2019-02-28T07:42:23.719Z,5.76
2019-02-28T07:43:23.791Z,5.69
2019-02-28T07:44:23.852Z,5.73
2019-02-28T07:45:23.900Z,5.80
2019-02-28T07:46:24.758Z,5.87
2019-02-28T07:47:25.460Z,5.94
2019-02-28T07:48:28.585Z,6.04
2019-02-28T07:49:25.824Z,6.12
2019-02-28T07:50:24.208Z,6.24
2019-02-28T07:51:26.307Z,6.38
2019-02-28T07:52:24.324Z,6.82
2019-02-28T07:53:24.406Z,7.35
2019-02-28T07:54:24.452Z,7.83
2019-02-28T07:55:27.320Z,8.45
2019-02-28T07:56:24.568Z,8.84
2019-02-28T07:57:24.638Z,9.40
2019-02-28T07:58:26.585Z,9.83
2019-02-28T07:59:24.760Z,10.13
2019-02-28T08:00:24.857Z,10.57
2019-02-28T08:01:27.676Z,10.94
2019-02-28T08:02:24.944Z,11.30
2019-02-28T08:03:25.012Z,11.48
2019-02-28T08:04:25.078Z,11.95
2019-02-28T08:05:30.109Z,12.20
2019-02-28T08:06:25.201Z,12.39
2019-02-28T08:07:25.264Z,12.72
2019-02-28T08:08:26.433Z,12.83
2019-02-28T08:09:25.395Z,13.03
2019-02-28T08:10:25.466Z,13.11
2019-02-28T08:11:25.521Z,13.30
2019-02-28T08:12:27.430Z,13.39
2019-02-28T08:13:25.651Z,13.65
2019-02-28T08:14:26.075Z,13.62
2019-02-28T08:15:25.778Z,13.67
2019-02-28T08:16:25.841Z,13.89
2019-02-28T08:17:25.909Z,14.05
2019-02-28T08:18:25.978Z,14.17
2019-02-28T08:19:27.167Z,14.26
2019-02-28T08:20:26.129Z,14.41
2019-02-28T08:21:26.177Z,14.58
2019-02-28T08:22:26.238Z,14.58
2019-02-28T08:23:29.902Z,14.48
2019-02-28T08:24:26.679Z,14.66
2019-02-28T08:25:26.445Z,14.72
2019-02-28T08:26:26.510Z,14.78
2019-02-28T08:27:26.570Z,14.72
2019-02-28T08:28:26.642Z,14.97
2019-02-28T08:29:26.702Z,14.97
2019-02-28T08:30:26.808Z,15.02
2019-02-28T08:31:28.424Z,15.14
2019-02-28T08:32:26.913Z,15.10
2019-02-28T08:33:26.988Z,15.42
2019-02-28T08:34:27.678Z,15.52
2019-02-28T08:35:27.140Z,15.64
2019-02-28T08:36:27.181Z,15.84
2019-02-28T08:37:27.246Z,15.86
2019-02-28T08:38:30.158Z,15.95
2019-02-28T08:39:27.386Z,15.90
2019-02-28T08:40:27.451Z,15.83
2019-02-28T08:41:27.519Z,16.02
2019-02-28T08:42:27.580Z,16.26
2019-02-28T08:43:27.650Z,16.10
2019-02-28T08:44:27.719Z,16.12
2019-02-28T08:45:32.876Z,16.29
2019-02-28T08:46:27.859Z,15.91
2019-02-28T08:47:27.919Z,15.95
2019-02-28T08:48:31.502Z,16.16
2019-02-28T08:49:28.075Z,16.21
2019-02-28T08:50:28.203Z,15.82
2019-02-28T08:51:30.960Z,15.61
2019-02-28T08:52:28.255Z,15.79
2019-02-28T08:53:28.325Z,15.97
2019-02-28T08:54:28.395Z,16.35
2019-02-28T08:55:29.363Z,16.61
2019-02-28T08:56:28.535Z,16.76
2019-02-28T08:57:28.597Z,16.99
2019-02-28T08:58:28.659Z,17.01
2019-02-28T08:59:28.738Z,17.09
2019-02-28T09:00:32.933Z,17.11
2019-02-28T09:01:28.875Z,16.75
2019-02-28T09:02:30.348Z,16.66
2019-02-28T09:03:29.004Z,16.36
2019-02-28T09:04:29.067Z,16.28
2019-02-28T09:05:30.156Z,16.02
2019-02-28T09:06:29.204Z,16.17
2019-02-28T09:07:29.276Z,15.83
2019-02-28T09:08:29.345Z,15.65
2019-02-28T09:09:31.663Z,15.76
2019-02-28T09:10:29.480Z,16.10
2019-02-28T09:11:29.548Z,16.17
2019-02-28T09:12:29.994Z,15.92
2019-02-28T09:13:29.692Z,16.10
2019-02-28T09:14:29.744Z,16.31
2019-02-28T09:15:31.227Z,16.53
2019-02-28T09:16:29.884Z,16.83
2019-02-28T09:17:29.963Z,16.78
2019-02-28T09:18:30.012Z,16.57
2019-02-28T09:19:32.636Z,17.02
2019-02-28T09:20:30.195Z,17.31
2019-02-28T09:21:30.212Z,17.48
2019-02-28T09:22:30.280Z,17.51
2019-02-28T09:23:30.353Z,17.44
2019-02-28T09:24:30.418Z,17.68
2019-02-28T09:25:30.493Z,17.68
2019-02-28T09:26:31.404Z,17.59
2019-02-28T09:27:30.617Z,17.80
2019-02-28T09:28:30.686Z,17.83
2019-02-28T09:29:30.753Z,17.90
2019-02-28T09:30:30.872Z,18.01
2019-02-28T09:31:30.909Z,17.71
2019-02-28T09:32:30.957Z,17.39
2019-02-28T09:33:31.032Z,16.94
2019-02-28T09:34:31.582Z,16.65
2019-02-28T09:35:31.162Z,16.31
2019-02-28T09:36:31.337Z,16.16
2019-02-28T09:37:31.293Z,15.95
2019-02-28T09:38:31.361Z,16.16
2019-02-28T09:39:31.430Z,16.36
2019-02-28T09:40:31.498Z,16.01
2019-02-28T09:41:31.569Z,15.80
2019-02-28T09:42:31.638Z,15.64
2019-02-28T09:43:31.698Z,15.58
2019-02-28T09:44:32.493Z,15.76
2019-02-28T09:45:31.830Z,15.67
2019-02-28T09:46:31.906Z,15.65
2019-02-28T09:47:31.974Z,15.84
2019-02-28T09:48:34.043Z,16.01
2019-02-28T09:49:32.117Z,16.28
2019-02-28T09:50:33.176Z,16.50
2019-02-28T09:51:32.847Z,16.57
2019-02-28T09:52:32.298Z,16.89
2019-02-28T09:53:32.367Z,16.50
2019-02-28T09:54:32.430Z,16.71
2019-02-28T09:55:35.278Z,16.66
2019-02-28T09:56:32.570Z,16.81
2019-02-28T09:57:32.638Z,17.05
2019-02-28T09:58:32.702Z,16.89
2019-02-28T09:59:37.276Z,16.60
2019-02-28T10:00:32.898Z,16.38
2019-02-28T10:01:32.910Z,16.35
2019-02-28T10:02:32.970Z,16.15
2019-02-28T10:03:34.632Z,15.86
2019-02-28T10:04:33.095Z,15.67
2019-02-28T10:05:33.163Z,15.65
2019-02-28T10:06:33.392Z,15.84
2019-02-28T10:07:33.401Z,16.26
2019-02-28T10:08:36.420Z,16.51
2019-02-28T10:09:33.427Z,16.89
2019-02-28T10:10:33.495Z,17.05
2019-02-28T10:11:33.563Z,17.34
2019-02-28T10:12:33.635Z,17.20
2019-02-28T10:13:33.703Z,17.52
2019-02-28T10:14:34.648Z,17.46
2019-02-28T10:15:33.831Z,17.42
2019-02-28T10:16:33.892Z,17.39
2019-02-28T10:17:33.972Z,17.36
2019-02-28T10:18:35.624Z,17.46
2019-02-28T10:19:43.050Z,17.33
2019-02-28T10:20:34.159Z,16.89
2019-02-28T10:21:36.492Z,16.38
2019-02-28T10:22:34.460Z,16.75
2019-02-28T10:23:34.357Z,17.06
2019-02-28T10:24:34.424Z,17.27
2019-02-28T10:25:40.117Z,17.42
2019-02-28T10:26:34.558Z,17.29
2019-02-28T10:27:34.650Z,17.29
2019-02-28T10:28:34.696Z,17.45
2019-02-28T10:29:34.756Z,17.20
2019-02-28T10:30:34.821Z,16.84
2019-02-28T10:31:38.206Z,16.54
2019-02-28T10:32:34.960Z,16.58
2019-02-28T10:33:35.028Z,16.58
2019-02-28T10:34:35.453Z,16.33
2019-02-28T10:35:36.895Z,16.38
2019-02-28T10:36:35.221Z,16.33
2019-02-28T10:37:35.683Z,16.17
2019-02-28T10:38:35.350Z,16.02
2019-02-28T10:39:35.417Z,15.86
2019-02-28T10:40:35.484Z,15.77
2019-02-28T10:41:35.549Z,15.57
2019-02-28T10:42:36.978Z,15.54
2019-02-28T10:43:35.691Z,15.65
2019-02-28T10:44:35.744Z,15.64
2019-02-28T10:45:41.129Z,15.46
2019-02-28T10:46:36.135Z,15.55
2019-02-28T10:47:35.954Z,15.43
2019-02-28T10:48:41.810Z,15.24
2019-02-28T10:49:36.077Z,15.22
2019-02-28T10:50:36.146Z,15.25
2019-02-28T10:51:36.205Z,15.21
2019-02-28T10:52:36.277Z,15.24
2019-02-28T10:53:39.394Z,15.35
2019-02-28T10:54:36.401Z,15.40
2019-02-28T10:55:36.472Z,15.47
2019-02-28T10:56:36.533Z,15.55
2019-02-28T10:57:37.218Z,15.55
2019-02-28T10:58:36.661Z,15.55
2019-02-28T10:59:36.754Z,15.47
2019-02-28T11:00:36.793Z,15.49
2019-02-28T11:01:41.543Z,15.42
2019-02-28T11:02:36.926Z,15.35
2019-02-28T11:03:36.990Z,15.19
2019-02-28T11:04:42.692Z,15.33
2019-02-28T11:05:37.138Z,15.22
2019-02-28T11:06:37.186Z,15.22
2019-02-28T11:07:37.717Z,15.21
2019-02-28T11:08:37.318Z,15.31
2019-02-28T11:09:37.391Z,15.27
2019-02-28T11:10:37.455Z,15.35
2019-02-28T11:11:37.510Z,15.19
2019-02-28T11:12:37.581Z,15.27
2019-02-28T11:13:37.642Z,15.40
2019-02-28T11:14:38.677Z,15.49
2019-02-28T11:15:37.783Z,15.52
2019-02-28T11:16:37.838Z,15.79
2019-02-28T11:17:37.903Z,16.01
2019-02-28T11:18:37.970Z,16.10
2019-02-28T11:19:38.047Z,16.29
2019-02-28T11:20:38.103Z,16.56
2019-02-28T11:21:38.163Z,16.69
2019-02-28T11:22:39.977Z,16.68
2019-02-28T11:23:38.303Z,16.71
2019-02-28T11:24:38.544Z,16.69
2019-02-28T11:25:38.423Z,16.68
2019-02-28T11:26:41.337Z,16.68
2019-02-28T11:27:38.555Z,16.51
2019-02-28T11:28:38.619Z,16.29
2019-02-28T11:29:38.695Z,16.21
2019-02-28T11:30:44.009Z,16.36
2019-02-28T11:31:38.815Z,16.49
2019-02-28T11:32:38.879Z,16.54
2019-02-28T11:33:39.616Z,16.51
2019-02-28T11:34:39.019Z,16.53
2019-02-28T11:35:39.083Z,16.51
2019-02-28T11:36:39.143Z,16.66
2019-02-28T11:37:39.221Z,16.51
2019-02-28T11:38:39.267Z,16.43
2019-02-28T11:39:39.344Z,16.38
2019-02-28T11:40:40.461Z,16.39
2019-02-28T11:41:39.468Z,16.51
2019-02-28T11:42:39.538Z,16.75
2019-02-28T11:43:39.601Z,16.66
2019-02-28T11:44:39.675Z,16.74
2019-02-28T11:45:39.745Z,16.53
2019-02-28T11:46:39.798Z,16.60
2019-02-28T11:47:42.650Z,16.51
2019-02-28T11:48:39.928Z,16.47
2019-02-28T11:49:40.000Z,16.42
2019-02-28T11:50:42.456Z,16.38
2019-02-28T11:51:40.124Z,16.32
2019-02-28T11:52:40.189Z,16.26
2019-02-28T11:53:40.602Z,16.20
2019-02-28T11:54:40.416Z,16.20
2019-02-28T11:55:40.391Z,16.26
2019-02-28T11:56:40.453Z,16.28
2019-02-28T11:57:41.338Z,16.38
2019-02-28T11:58:40.581Z,16.57
2019-02-28T11:59:40.670Z,16.61
2019-02-28T12:00:40.721Z,16.58
2019-02-28T12:01:42.414Z,16.66
2019-02-28T12:02:40.843Z,16.71
2019-02-28T12:03:40.909Z,16.72
2019-02-28T12:04:41.226Z,16.58
2019-02-28T12:05:41.045Z,16.71
2019-02-28T12:06:41.105Z,16.61
2019-02-28T12:07:41.196Z,16.53
2019-02-28T12:08:41.654Z,16.60
2019-02-28T12:09:41.409Z,16.50
2019-02-28T12:10:41.363Z,16.49
2019-02-28T12:11:41.437Z,16.36
2019-02-28T12:12:44.418Z,16.29
2019-02-28T12:13:41.581Z,16.28
2019-02-28T12:14:41.645Z,16.35
2019-02-28T12:15:41.701Z,16.32
2019-02-28T12:16:41.765Z,16.35
2019-02-28T12:17:41.827Z,16.39
2019-02-28T12:18:41.894Z,16.54
2019-02-28T12:19:41.966Z,16.53
2019-02-28T12:20:42.027Z,16.32
2019-02-28T12:21:42.090Z,16.42
2019-02-28T12:22:43.529Z,16.38
2019-02-28T12:23:42.215Z,16.58
2019-02-28T12:24:42.282Z,16.58
2019-02-28T12:25:42.763Z,16.76
2019-02-28T12:26:42.410Z,16.79
2019-02-28T12:27:42.476Z,17.01
2019-02-28T12:28:42.546Z,16.84
2019-02-28T12:29:45.664Z,16.84
2019-02-28T12:30:42.686Z,16.84
2019-02-28T12:31:42.742Z,16.75
2019-02-28T12:32:43.449Z,16.75
2019-02-28T12:33:42.875Z,16.74
2019-02-28T12:34:42.935Z,16.74
2019-02-28T12:35:43.014Z,16.89
2019-02-28T12:36:43.075Z,16.99
2019-02-28T12:37:43.130Z,17.02
2019-02-28T12:38:43.199Z,16.99
2019-02-28T12:39:43.271Z,16.97
2019-02-28T12:40:45.641Z,16.83
2019-02-28T12:41:43.731Z,16.89
2019-02-28T12:42:43.455Z,16.91
2019-02-28T12:43:43.543Z,16.96
2019-02-28T12:44:46.269Z,17.02
2019-02-28T12:45:46.433Z,16.79
2019-02-28T12:46:43.715Z,16.78
2019-02-28T12:47:45.833Z,16.72
2019-02-28T12:48:45.559Z,16.84
2019-02-28T12:49:43.911Z,16.84
2019-02-28T12:50:43.982Z,16.75
2019-02-28T12:51:44.043Z,16.78
2019-02-28T12:52:48.985Z,16.71
2019-02-28T12:53:44.180Z,16.65
2019-02-28T12:54:44.244Z,16.68
2019-02-28T12:55:44.308Z,16.72
2019-02-28T12:56:45.170Z,16.91
2019-02-28T12:57:44.452Z,16.86
2019-02-28T12:58:44.512Z,16.61
2019-02-28T12:59:45.961Z,16.58
2019-02-28T13:00:44.640Z,16.51
2019-02-28T13:01:44.698Z,16.21
2019-02-28T13:02:44.768Z,16.17
2019-02-28T13:03:44.836Z,15.92
2019-02-28T13:04:44.896Z,15.59
2019-02-28T13:05:47.824Z,15.47
2019-02-28T13:06:45.028Z,15.25
2019-02-28T13:07:45.120Z,15.10
2019-02-28T13:08:45.156Z,15.07
2019-02-28T13:09:45.220Z,15.00